createdAt,value
2017-08-09T00:00:48.274Z,1016.56
2017-08-09T00:02:02.439Z,1016.56
2017-08-09T00:03:04.326Z,1016.49
2017-08-09T00:04:06.217Z,1016.49
2017-08-09T00:05:08.101Z,1016.49
2017-08-09T00:06:09.924Z,1016.46
2017-08-09T00:07:11.747Z,1016.51
2017-08-09T00:08:13.632Z,1016.48
2017-08-09T00:09:15.528Z,1016.51
2017-08-09T00:10:17.414Z,1016.51
2017-08-09T00:11:31.574Z,1016.55
2017-08-09T00:12:33.472Z,1016.52
2017-08-09T00:13:35.369Z,1016.57
2017-08-09T00:14:37.265Z,1016.54
2017-08-09T00:15:39.088Z,1016.64
2017-08-09T00:16:40.914Z,1016.72
2017-08-09T00:17:42.800Z,1016.73
2017-08-09T00:18:44.687Z,1016.76
2017-08-09T00:19:46.569Z,1016.79
2017-08-09T00:21:00.779Z,1016.79
2017-08-09T00:22:02.669Z,1016.90
2017-08-09T00:23:04.549Z,1016.88
2017-08-09T00:24:06.441Z,1016.98
2017-08-09T00:25:08.274Z,1016.97
2017-08-09T00:26:10.107Z,1016.94
2017-08-09T00:27:12.000Z,1017.02
2017-08-09T00:28:13.894Z,1017.04
2017-08-09T00:29:15.778Z,1017.00
2017-08-09T00:30:29.939Z,1017.03
2017-08-09T00:31:31.825Z,1017.01
2017-08-09T00:32:33.712Z,1016.97
2017-08-09T00:33:35.607Z,1016.89
2017-08-09T00:34:37.430Z,1016.87
2017-08-09T00:35:39.256Z,1016.88
2017-08-09T00:36:41.142Z,1016.78
2017-08-09T00:37:43.037Z,1016.84
2017-08-09T00:38:44.924Z,1016.72
2017-08-09T00:39:59.067Z,1016.72
2017-08-09T00:41:00.903Z,1016.64
2017-08-09T00:42:02.738Z,1016.59
2017-08-09T00:43:04.622Z,1016.56
2017-08-09T00:44:06.505Z,1016.52
2017-08-09T00:45:08.376Z,1016.50
2017-08-09T00:46:10.204Z,1016.55
2017-08-09T00:47:12.025Z,1016.52
2017-08-09T00:48:13.914Z,1016.54
2017-08-09T00:49:28.136Z,1016.57
2017-08-09T00:50:30.021Z,1016.53
2017-08-09T00:51:31.918Z,1016.54
2017-08-09T00:52:33.800Z,1016.53
2017-08-09T00:53:35.622Z,1016.50
2017-08-09T00:54:37.444Z,1016.50
2017-08-09T00:55:39.330Z,1016.51
2017-08-09T00:56:41.226Z,1016.50
2017-08-09T00:57:43.115Z,1016.50
2017-08-09T00:58:57.275Z,1016.48
2017-08-09T00:59:59.165Z,1016.47
2017-08-09T01:01:01.052Z,1016.53
2017-08-09T01:02:02.936Z,1016.54
2017-08-09T01:03:04.769Z,1016.60
2017-08-09T01:04:06.603Z,1016.66
2017-08-09T01:05:08.488Z,1016.67
2017-08-09T01:06:10.371Z,1016.69
2017-08-09T01:07:12.258Z,1016.68
2017-08-09T01:08:26.429Z,1016.64
2017-08-09T01:09:28.321Z,1016.61
2017-08-09T01:10:30.211Z,1016.57
2017-08-09T01:11:32.089Z,1016.54
2017-08-09T01:12:33.914Z,1016.53
2017-08-09T01:13:35.749Z,1016.46
2017-08-09T01:14:37.644Z,1016.44
2017-08-09T01:15:39.530Z,1016.38
2017-08-09T01:16:41.413Z,1016.31
2017-08-09T01:17:55.577Z,1016.27
2017-08-09T01:18:57.459Z,1016.29
2017-08-09T01:19:59.356Z,1016.23
2017-08-09T01:21:01.240Z,1016.20
2017-08-09T01:22:03.064Z,1016.21
2017-08-09T01:23:04.897Z,1016.21
2017-08-09T01:24:06.783Z,1016.18
2017-08-09T01:25:08.670Z,1016.21
2017-08-09T01:26:10.559Z,1016.15
2017-08-09T01:27:24.716Z,1016.11
2017-08-09T01:28:26.614Z,1016.05
2017-08-09T01:29:28.514Z,1015.99
2017-08-09T01:30:30.403Z,1015.92
2017-08-09T01:31:32.227Z,1015.84
2017-08-09T01:32:34.058Z,1015.80
2017-08-09T01:33:35.942Z,1015.76
2017-08-09T01:34:37.838Z,1015.70
2017-08-09T01:35:39.721Z,1015.70
2017-08-09T01:36:53.887Z,1015.68
2017-08-09T01:37:55.770Z,1015.61
2017-08-09T01:38:57.666Z,1015.55
2017-08-09T01:39:59.579Z,1015.46
2017-08-09T01:41:01.384Z,1015.39
2017-08-09T01:42:03.204Z,1015.34
2017-08-09T01:43:05.096Z,1015.31
2017-08-09T01:44:06.980Z,1015.36
2017-08-09T01:45:08.873Z,1015.42
2017-08-09T01:46:23.033Z,1015.45
2017-08-09T01:47:24.927Z,1015.47
2017-08-09T01:48:26.812Z,1015.48
2017-08-09T01:49:28.698Z,1015.48
2017-08-09T01:50:30.530Z,1015.48
2017-08-09T01:51:32.353Z,1015.43
2017-08-09T01:52:34.251Z,1015.47
2017-08-09T01:53:36.143Z,1015.50
2017-08-09T01:54:38.025Z,1015.54
2017-08-09T01:55:52.186Z,1015.54
2017-08-09T01:56:54.072Z,1015.54
2017-08-09T01:57:55.960Z,1015.50
2017-08-09T01:58:57.860Z,1015.43
2017-08-09T01:59:59.692Z,1015.44
2017-08-09T02:01:01.514Z,1015.47
2017-08-09T02:02:03.399Z,1015.49
2017-08-09T02:03:05.287Z,1015.54
2017-08-09T02:04:07.171Z,1015.58
2017-08-09T02:05:21.327Z,1015.55
2017-08-09T02:06:23.213Z,1015.61
2017-08-09T02:07:25.098Z,1015.65
2017-08-09T02:08:26.988Z,1015.69
2017-08-09T02:09:28.805Z,1015.71
2017-08-09T02:10:30.625Z,1015.77
2017-08-09T02:11:32.511Z,1015.79
2017-08-09T02:12:34.400Z,1015.78
2017-08-09T02:13:36.286Z,1015.80
2017-08-09T02:14:50.442Z,1015.83
2017-08-09T02:15:52.327Z,1015.85
2017-08-09T02:16:54.222Z,1015.90
2017-08-09T02:17:56.109Z,1015.94
2017-08-09T02:18:57.934Z,1016.00
2017-08-09T02:19:59.757Z,1015.99
2017-08-09T02:21:01.646Z,1016.07
2017-08-09T02:22:03.533Z,1016.08
2017-08-09T02:23:05.430Z,1016.14
2017-08-09T02:24:19.585Z,1016.11
2017-08-09T02:25:21.469Z,1016.08
2017-08-09T02:26:23.352Z,1016.04
2017-08-09T02:27:25.247Z,1016.07
2017-08-09T02:28:27.077Z,1016.05
2017-08-09T02:29:28.909Z,1016.14
2017-08-09T02:30:30.796Z,1016.22
2017-08-09T02:31:32.684Z,1016.23
2017-08-09T02:32:34.569Z,1016.22
2017-08-09T02:33:48.728Z,1016.22
2017-08-09T02:34:50.614Z,1016.25
2017-08-09T02:35:52.501Z,1016.26
2017-08-09T02:36:54.402Z,1016.28
2017-08-09T02:37:56.226Z,1016.24
2017-08-09T02:38:58.049Z,1016.27
2017-08-09T02:39:59.931Z,1016.35
2017-08-09T02:41:01.878Z,1016.39
2017-08-09T02:42:03.894Z,1016.40
2017-08-09T02:43:18.031Z,1016.42
2017-08-09T02:44:19.912Z,1016.42
2017-08-09T02:45:21.793Z,1016.43
2017-08-09T02:46:23.676Z,1016.41
2017-08-09T02:47:25.498Z,1016.39
2017-08-09T02:48:27.320Z,1016.40
2017-08-09T02:49:29.213Z,1016.39
2017-08-09T02:50:31.097Z,1016.35
2017-08-09T02:51:32.977Z,1016.35
2017-08-09T02:52:47.133Z,1016.37
2017-08-09T02:53:49.014Z,1016.39
2017-08-09T02:54:50.901Z,1016.39
2017-08-09T02:55:52.782Z,1016.39
2017-08-09T02:56:54.605Z,1016.37
2017-08-09T02:57:56.427Z,1016.37
2017-08-09T02:58:58.309Z,1016.35
2017-08-09T03:00:00.205Z,1016.31
2017-08-09T03:01:02.080Z,1016.29
2017-08-09T03:02:16.238Z,1016.19
2017-08-09T03:03:18.121Z,1016.18
2017-08-09T03:04:20.004Z,1016.14
2017-08-09T03:05:21.888Z,1016.20
2017-08-09T03:06:23.710Z,1016.19
2017-08-09T03:07:25.532Z,1016.23
2017-08-09T03:08:27.416Z,1016.27
2017-08-09T03:09:29.302Z,1016.29
2017-08-09T03:10:31.183Z,1016.24
2017-08-09T03:11:45.338Z,1016.28
2017-08-09T03:12:47.218Z,1016.33
2017-08-09T03:13:49.101Z,1016.33
2017-08-09T03:14:50.994Z,1016.39
2017-08-09T03:15:52.817Z,1016.42
2017-08-09T03:16:54.638Z,1016.44
2017-08-09T03:17:56.521Z,1016.47
2017-08-09T03:18:58.414Z,1016.54
2017-08-09T03:20:00.296Z,1016.52
2017-08-09T03:21:14.454Z,1016.52
2017-08-09T03:22:16.336Z,1016.53
2017-08-09T03:23:18.221Z,1016.49
2017-08-09T03:24:20.103Z,1016.47
2017-08-09T03:25:21.926Z,1016.47
2017-08-09T03:26:23.746Z,1016.48
2017-08-09T03:27:25.630Z,1016.48
2017-08-09T03:28:27.528Z,1016.52
2017-08-09T03:29:29.412Z,1016.53
2017-08-09T03:30:43.569Z,1016.61
2017-08-09T03:31:45.456Z,1016.62
2017-08-09T03:32:47.337Z,1016.64
2017-08-09T03:33:49.232Z,1016.65
2017-08-09T03:34:51.057Z,1016.71
2017-08-09T03:35:52.878Z,1016.71
2017-08-09T03:36:54.774Z,1016.76
2017-08-09T03:37:56.658Z,1016.72
2017-08-09T03:38:58.546Z,1016.77
2017-08-09T03:40:12.703Z,1016.74
2017-08-09T03:41:14.585Z,1016.70
2017-08-09T03:42:16.472Z,1016.67
2017-08-09T03:43:18.361Z,1016.70
2017-08-09T03:44:20.179Z,1016.76
2017-08-09T03:45:22.002Z,1016.79
2017-08-09T03:46:23.888Z,1016.84
2017-08-09T03:47:25.773Z,1016.85
2017-08-09T03:48:27.658Z,1016.81
2017-08-09T03:49:41.818Z,1016.89
2017-08-09T03:50:43.705Z,1016.87
2017-08-09T03:51:45.595Z,1016.79
2017-08-09T03:52:47.477Z,1016.72
2017-08-09T03:53:49.311Z,1016.77
2017-08-09T03:54:51.146Z,1016.70
2017-08-09T03:55:53.033Z,1016.68
2017-08-09T03:56:54.933Z,1016.73
2017-08-09T03:57:56.814Z,1016.77
2017-08-09T03:59:10.974Z,1016.75
2017-08-09T04:00:12.860Z,1016.73
2017-08-09T04:01:14.747Z,1016.81
2017-08-09T04:02:16.634Z,1016.80
2017-08-09T04:03:18.471Z,1016.77
2017-08-09T04:04:20.295Z,1016.78
2017-08-09T04:05:22.183Z,1016.75
2017-08-09T04:06:24.072Z,1016.81
2017-08-09T04:07:25.966Z,1016.77
2017-08-09T04:08:40.129Z,1016.73
2017-08-09T04:09:42.026Z,1016.76
2017-08-09T04:10:43.931Z,1016.74
2017-08-09T04:11:45.803Z,1016.69
2017-08-09T04:12:47.640Z,1016.76
2017-08-09T04:13:49.465Z,1016.80
2017-08-09T04:14:51.352Z,1016.84
2017-08-09T04:15:53.244Z,1016.95
2017-08-09T04:16:55.136Z,1016.99
2017-08-09T04:18:09.292Z,1017.09
2017-08-09T04:19:11.179Z,1017.08
2017-08-09T04:20:13.068Z,1017.15
2017-08-09T04:21:14.955Z,1017.22
2017-08-09T04:22:16.782Z,1017.13
2017-08-09T04:23:18.618Z,1017.11
2017-08-09T04:24:20.505Z,1017.11
2017-08-09T04:25:22.398Z,1017.13
2017-08-09T04:26:24.295Z,1017.16
2017-08-09T04:27:38.461Z,1017.17
2017-08-09T04:28:40.342Z,1017.13
2017-08-09T04:29:45.265Z,1017.18
2017-08-09T04:30:47.151Z,1017.14
2017-08-09T04:31:49.011Z,1017.26
2017-08-09T04:32:50.834Z,1017.32
2017-08-09T04:33:52.736Z,1017.39
2017-08-09T04:34:54.625Z,1017.41
2017-08-09T04:35:56.523Z,1017.39
2017-08-09T04:37:10.686Z,1017.42
2017-08-09T04:38:12.572Z,1017.40
2017-08-09T04:39:14.464Z,1017.48
2017-08-09T04:40:16.351Z,1017.55
2017-08-09T04:41:18.182Z,1017.58
2017-08-09T04:42:20.007Z,1017.60
2017-08-09T04:43:21.898Z,1017.57
2017-08-09T04:44:23.788Z,1017.58
2017-08-09T04:45:25.681Z,1017.64
2017-08-09T04:46:39.894Z,1017.66
2017-08-09T04:47:41.783Z,1017.66
2017-08-09T04:48:43.683Z,1017.62
2017-08-09T04:49:45.573Z,1017.65
2017-08-09T04:50:47.403Z,1017.62
2017-08-09T04:51:49.237Z,1017.64
2017-08-09T04:52:51.125Z,1017.68
2017-08-09T04:53:53.022Z,1017.72
2017-08-09T04:54:54.922Z,1017.74
2017-08-09T04:56:09.090Z,1017.88
2017-08-09T04:57:10.978Z,1017.89
2017-08-09T04:58:12.870Z,1017.88
2017-08-09T04:59:14.762Z,1017.89
2017-08-09T05:00:16.594Z,1017.84
2017-08-09T05:01:18.418Z,1017.84
2017-08-09T05:02:20.321Z,1017.82
2017-08-09T05:03:22.213Z,1017.83
2017-08-09T05:04:24.103Z,1017.79
2017-08-09T05:05:38.286Z,1017.83
2017-08-09T05:06:40.174Z,1017.82
2017-08-09T05:07:42.066Z,1017.81
2017-08-09T05:08:43.959Z,1017.77
2017-08-09T05:09:45.789Z,1017.77
2017-08-09T05:10:47.619Z,1017.81
2017-08-09T05:11:49.510Z,1017.82
2017-08-09T05:12:51.403Z,1017.81
2017-08-09T05:13:53.291Z,1017.87
2017-08-09T05:15:07.457Z,1017.85
2017-08-09T05:16:09.345Z,1017.91
2017-08-09T05:17:11.243Z,1017.88
2017-08-09T05:18:13.131Z,1017.94
2017-08-09T05:19:14.963Z,1017.90
2017-08-09T05:20:16.791Z,1017.89
2017-08-09T05:21:18.685Z,1017.86
2017-08-09T05:22:20.585Z,1017.87
2017-08-09T05:23:22.477Z,1017.86
2017-08-09T05:24:36.639Z,1017.91
2017-08-09T05:25:38.531Z,1017.98
2017-08-09T05:26:40.424Z,1018.06
2017-08-09T05:27:42.314Z,1018.04
2017-08-09T05:28:44.155Z,1018.05
2017-08-09T05:29:45.983Z,1018.06
2017-08-09T05:30:47.872Z,1017.99
2017-08-09T05:31:49.763Z,1018.05
2017-08-09T05:32:51.651Z,1018.06
2017-08-09T05:34:05.818Z,1018.06
2017-08-09T05:35:07.704Z,1018.09
2017-08-09T05:36:09.604Z,1018.13
2017-08-09T05:37:11.505Z,1018.12
2017-08-09T05:38:13.345Z,1018.12
2017-08-09T05:39:15.174Z,1018.14
2017-08-09T05:40:17.065Z,1018.08
2017-08-09T05:41:18.956Z,1018.02
2017-08-09T05:42:20.846Z,1017.93
2017-08-09T05:43:35.010Z,1017.90
2017-08-09T05:44:36.897Z,1017.97
2017-08-09T05:45:38.788Z,1018.12
2017-08-09T05:46:40.676Z,1018.16
2017-08-09T05:47:42.505Z,1018.20
2017-08-09T05:48:44.343Z,1018.11
2017-08-09T05:49:46.236Z,1018.06
2017-08-09T05:50:48.123Z,1017.97
2017-08-09T05:51:50.022Z,1017.96
2017-08-09T05:53:04.190Z,1017.93
2017-08-09T05:54:06.076Z,1017.93
2017-08-09T05:55:07.965Z,1017.95
2017-08-09T05:56:09.854Z,1017.94
2017-08-09T05:57:11.693Z,1017.97
2017-08-09T05:58:13.521Z,1017.98
2017-08-09T05:59:15.407Z,1018.00
2017-08-09T06:00:17.297Z,1018.00
2017-08-09T06:01:19.197Z,1018.01
2017-08-09T06:02:33.367Z,1018.07
2017-08-09T06:03:35.256Z,1018.15
2017-08-09T06:04:37.148Z,1018.21
2017-08-09T06:05:39.040Z,1018.28
2017-08-09T06:06:40.869Z,1018.34
2017-08-09T06:07:42.708Z,1018.34
2017-08-09T06:08:44.599Z,1018.39
2017-08-09T06:09:46.492Z,1018.39
2017-08-09T06:10:48.381Z,1018.39
2017-08-09T06:12:02.547Z,1018.42
2017-08-09T06:13:04.435Z,1018.47
2017-08-09T06:14:06.327Z,1018.54
2017-08-09T06:15:08.217Z,1018.55
2017-08-09T06:16:10.047Z,1018.50
2017-08-09T06:17:11.874Z,1018.51
2017-08-09T06:18:13.767Z,1018.53
2017-08-09T06:19:15.657Z,1018.49
2017-08-09T06:20:17.547Z,1018.52
2017-08-09T06:21:31.711Z,1018.56
2017-08-09T06:22:33.599Z,1018.61
2017-08-09T06:23:35.491Z,1018.65
2017-08-09T06:24:37.382Z,1018.73
2017-08-09T06:25:39.209Z,1018.79
2017-08-09T06:26:41.049Z,1018.88
2017-08-09T06:27:42.950Z,1018.92
2017-08-09T06:28:44.840Z,1018.97
2017-08-09T06:29:46.733Z,1018.96
2017-08-09T06:31:00.896Z,1018.98
2017-08-09T06:32:02.789Z,1019.01
2017-08-09T06:33:04.680Z,1019.00
2017-08-09T06:34:06.574Z,1018.94
2017-08-09T06:35:08.404Z,1018.94
2017-08-09T06:36:10.233Z,1018.85
2017-08-09T06:37:12.127Z,1018.86
2017-08-09T06:38:14.031Z,1018.88
2017-08-09T06:39:15.928Z,1018.93
2017-08-09T06:40:30.092Z,1019.02
2017-08-09T06:41:31.987Z,1019.00
2017-08-09T06:42:33.879Z,1019.01
2017-08-09T06:43:35.773Z,1019.04
2017-08-09T06:44:37.614Z,1019.02
2017-08-09T06:45:39.443Z,1019.06
2017-08-09T06:46:41.336Z,1019.02
2017-08-09T06:47:43.230Z,1019.04
2017-08-09T06:48:45.122Z,1019.03
2017-08-09T06:49:59.268Z,1018.99
2017-08-09T06:51:01.100Z,1018.95
2017-08-09T06:52:02.932Z,1018.92
2017-08-09T06:53:04.785Z,1018.93
2017-08-09T06:54:06.676Z,1018.95
2017-08-09T06:55:08.565Z,1018.91
2017-08-09T06:56:10.409Z,1018.85
2017-08-09T06:57:12.239Z,1018.83
2017-08-09T06:58:14.070Z,1018.79
2017-08-09T06:59:28.293Z,1018.75
2017-08-09T07:00:30.184Z,1018.77
2017-08-09T07:01:32.077Z,1018.75
2017-08-09T07:02:33.968Z,1018.74
2017-08-09T07:03:35.797Z,1018.75
2017-08-09T07:04:37.622Z,1018.77
2017-08-09T07:05:39.523Z,1018.73
2017-08-09T07:06:41.426Z,1018.71
2017-08-09T07:07:43.316Z,1018.66
2017-08-09T07:08:57.480Z,1018.64
2017-08-09T07:09:59.369Z,1018.57
2017-08-09T07:11:01.261Z,1018.49
2017-08-09T07:12:03.152Z,1018.37
2017-08-09T07:13:04.981Z,1018.33
2017-08-09T07:14:06.809Z,1018.31
2017-08-09T07:15:08.699Z,1018.36
2017-08-09T07:16:10.592Z,1018.39
2017-08-09T07:17:12.482Z,1018.44
2017-08-09T07:18:26.647Z,1018.50
2017-08-09T07:19:28.540Z,1018.62
2017-08-09T07:20:30.430Z,1018.70
2017-08-09T07:21:32.325Z,1018.79
2017-08-09T07:22:34.154Z,1018.90
2017-08-09T07:23:35.996Z,1018.97
2017-08-09T07:24:37.887Z,1019.08
2017-08-09T07:25:39.792Z,1019.22
2017-08-09T07:26:41.683Z,1019.33
2017-08-09T07:27:55.833Z,1019.40
2017-08-09T07:28:57.670Z,1019.49
2017-08-09T07:29:59.555Z,1019.56
2017-08-09T07:31:01.452Z,1019.56
2017-08-09T07:32:03.348Z,1019.49
2017-08-09T07:33:05.201Z,1019.41
2017-08-09T07:34:07.010Z,1019.33
2017-08-09T07:35:08.901Z,1019.33
2017-08-09T07:36:10.792Z,1019.29
2017-08-09T07:37:25.076Z,1019.42
2017-08-09T07:38:26.959Z,1019.51
2017-08-09T07:39:28.849Z,1019.52
2017-08-09T07:40:30.744Z,1019.50
2017-08-09T07:41:32.579Z,1019.51
2017-08-09T07:42:34.414Z,1019.49
2017-08-09T07:43:36.302Z,1019.47
2017-08-09T07:44:38.195Z,1019.49
2017-08-09T07:45:40.088Z,1019.48
2017-08-09T07:46:54.256Z,1019.53
2017-08-09T07:47:56.145Z,1019.61
2017-08-09T07:48:58.039Z,1019.69
2017-08-09T07:49:59.930Z,1019.76
2017-08-09T07:51:01.760Z,1019.81
2017-08-09T07:52:03.639Z,1019.77
2017-08-09T07:53:05.471Z,1019.83
2017-08-09T07:54:07.362Z,1019.85
2017-08-09T07:55:09.255Z,1019.90
2017-08-09T07:56:23.422Z,1019.84
2017-08-09T07:57:25.315Z,1019.77
2017-08-09T07:58:27.207Z,1019.77
2017-08-09T07:59:29.101Z,1019.80
2017-08-09T08:00:30.933Z,1019.79
2017-08-09T08:01:32.767Z,1019.85
2017-08-09T08:02:34.658Z,1019.81
2017-08-09T08:03:36.552Z,1019.77
2017-08-09T08:04:38.446Z,1019.67
2017-08-09T08:05:52.614Z,1019.72
2017-08-09T08:06:54.507Z,1019.74
2017-08-09T08:07:56.403Z,1019.65
2017-08-09T08:08:58.299Z,1019.56
2017-08-09T08:10:00.131Z,1019.50
2017-08-09T08:11:01.964Z,1019.33
2017-08-09T08:12:03.858Z,1019.25
2017-08-09T08:13:05.753Z,1019.18
2017-08-09T08:14:07.645Z,1019.15
2017-08-09T08:15:21.862Z,1019.18
2017-08-09T08:16:23.755Z,1019.22
2017-08-09T08:17:25.643Z,1019.23
2017-08-09T08:18:27.534Z,1019.23
2017-08-09T08:19:29.366Z,1019.25
2017-08-09T08:20:31.207Z,1019.24
2017-08-09T08:21:33.106Z,1019.20
2017-08-09T08:22:34.994Z,1019.15
2017-08-09T08:23:36.882Z,1019.19
2017-08-09T08:24:51.123Z,1019.24
2017-08-09T08:25:53.013Z,1019.24
2017-08-09T08:26:54.905Z,1019.25
2017-08-09T08:27:56.801Z,1019.33
2017-08-09T08:28:58.629Z,1019.31
2017-08-09T08:30:00.461Z,1019.33
2017-08-09T08:31:02.353Z,1019.42
2017-08-09T08:32:04.245Z,1019.49
2017-08-09T08:33:06.139Z,1019.58
2017-08-09T08:34:20.354Z,1019.76
2017-08-09T08:35:22.247Z,1019.87
2017-08-09T08:36:24.137Z,1019.84
2017-08-09T08:37:26.029Z,1019.84
2017-08-09T08:38:27.858Z,1019.76
2017-08-09T08:39:29.690Z,1019.74
2017-08-09T08:40:31.583Z,1019.66
2017-08-09T08:41:33.476Z,1019.70
2017-08-09T08:42:35.368Z,1019.77
2017-08-09T08:43:49.539Z,1019.78
2017-08-09T08:44:51.430Z,1019.77
2017-08-09T08:45:53.323Z,1019.78
2017-08-09T08:46:55.216Z,1019.82
2017-08-09T08:47:57.051Z,1019.77
2017-08-09T08:48:58.882Z,1019.74
2017-08-09T08:50:00.774Z,1019.75
2017-08-09T08:51:02.673Z,1019.74
2017-08-09T08:52:04.565Z,1019.69
2017-08-09T08:53:18.783Z,1019.64
2017-08-09T08:54:20.686Z,1019.67
2017-08-09T08:55:22.574Z,1019.65
2017-08-09T08:56:24.478Z,1019.64
2017-08-09T08:57:26.309Z,1019.64
2017-08-09T08:58:28.138Z,1019.53
2017-08-09T08:59:30.044Z,1019.52
2017-08-09T09:00:31.956Z,1019.44
2017-08-09T09:01:33.845Z,1019.33
2017-08-09T09:02:48.013Z,1019.26
2017-08-09T09:03:49.904Z,1019.21
2017-08-09T09:04:51.795Z,1019.23
2017-08-09T09:05:53.687Z,1019.18
2017-08-09T09:06:55.519Z,1019.20
2017-08-09T09:07:57.349Z,1019.24
2017-08-09T09:08:59.240Z,1019.31
2017-08-09T09:10:01.132Z,1019.32
2017-08-09T09:11:03.024Z,1019.34
2017-08-09T09:12:17.191Z,1019.32
2017-08-09T09:13:19.081Z,1019.37
2017-08-09T09:14:20.973Z,1019.44
2017-08-09T09:15:22.864Z,1019.43
2017-08-09T09:16:24.706Z,1019.48
2017-08-09T09:17:26.547Z,1019.53
2017-08-09T09:18:28.380Z,1019.46
2017-08-09T09:19:30.217Z,1019.53
2017-08-09T09:20:32.055Z,1019.56
2017-08-09T09:21:46.218Z,1019.61
2017-08-09T09:22:48.132Z,1019.66
2017-08-09T09:23:50.018Z,1019.72
2017-08-09T09:24:51.925Z,1019.76
2017-08-09T09:25:53.778Z,1019.71
2017-08-09T09:26:55.610Z,1019.63
2017-08-09T09:27:57.506Z,1019.63
2017-08-09T09:28:59.413Z,1019.61
2017-08-09T09:30:01.293Z,1019.65
2017-08-09T09:31:15.466Z,1019.67
2017-08-09T09:32:17.360Z,1019.79
2017-08-09T09:33:19.252Z,1019.83
2017-08-09T09:34:21.146Z,1019.92
2017-08-09T09:35:22.978Z,1019.95
2017-08-09T09:36:24.813Z,1020.00
2017-08-09T09:37:26.706Z,1020.05
2017-08-09T09:38:28.603Z,1020.07
2017-08-09T09:39:30.497Z,1020.01
2017-08-09T09:40:44.666Z,1020.00
2017-08-09T09:41:46.559Z,1020.03
2017-08-09T09:42:48.454Z,1020.01
2017-08-09T09:43:50.351Z,1019.96
2017-08-09T09:44:52.187Z,1019.98
2017-08-09T09:45:54.016Z,1019.95
2017-08-09T09:46:55.921Z,1019.93
2017-08-09T09:47:57.827Z,1019.93
2017-08-09T09:48:59.723Z,1019.95
2017-08-09T09:50:13.894Z,1019.96
2017-08-09T09:51:15.791Z,1019.95
2017-08-09T09:52:17.683Z,1019.97
2017-08-09T09:53:19.574Z,1019.96
2017-08-09T09:54:21.419Z,1019.99
2017-08-09T09:55:23.253Z,1019.97
2017-08-09T09:56:25.147Z,1019.87
2017-08-09T09:57:27.042Z,1019.84
2017-08-09T09:58:28.935Z,1019.82
2017-08-09T09:59:43.104Z,1019.77
2017-08-09T10:00:44.996Z,1019.74
2017-08-09T10:01:46.892Z,1019.69
2017-08-09T10:02:48.803Z,1019.62
2017-08-09T10:03:50.636Z,1019.58
2017-08-09T10:04:52.479Z,1019.56
2017-08-09T10:05:54.366Z,1019.50
2017-08-09T10:06:56.258Z,1019.51
2017-08-09T10:07:58.157Z,1019.53
2017-08-09T10:09:12.323Z,1019.60
2017-08-09T10:10:14.214Z,1019.62
2017-08-09T10:11:16.110Z,1019.69
2017-08-09T10:12:17.999Z,1019.67
2017-08-09T10:13:19.843Z,1019.65
2017-08-09T10:14:21.672Z,1019.62
2017-08-09T10:15:23.565Z,1019.62
2017-08-09T10:16:25.472Z,1019.57
2017-08-09T10:17:27.370Z,1019.57
2017-08-09T10:18:41.556Z,1019.57
2017-08-09T10:19:43.449Z,1019.59
2017-08-09T10:20:45.341Z,1019.61
2017-08-09T10:21:47.235Z,1019.62
2017-08-09T10:22:49.079Z,1019.58
2017-08-09T10:23:50.905Z,1019.60
2017-08-09T10:24:52.798Z,1019.56
2017-08-09T10:25:54.697Z,1019.59
2017-08-09T10:26:56.598Z,1019.60
2017-08-09T10:28:10.769Z,1019.63
2017-08-09T10:29:12.662Z,1019.59
2017-08-09T10:30:14.554Z,1019.61
2017-08-09T10:31:16.445Z,1019.58
2017-08-09T10:32:18.278Z,1019.61
2017-08-09T10:33:20.105Z,1019.57
2017-08-09T10:34:21.999Z,1019.54
2017-08-09T10:35:23.891Z,1019.59
2017-08-09T10:36:25.784Z,1019.59
2017-08-09T10:37:39.951Z,1019.59
2017-08-09T10:38:41.840Z,1019.61
2017-08-09T10:39:43.738Z,1019.59
2017-08-09T10:40:45.638Z,1019.57
2017-08-09T10:41:47.471Z,1019.57
2017-08-09T10:42:49.385Z,1019.60
2017-08-09T10:43:51.254Z,1019.56
2017-08-09T10:44:53.146Z,1019.59
2017-08-09T10:45:55.068Z,1019.62
2017-08-09T10:47:09.233Z,1019.64
2017-08-09T10:48:11.150Z,1019.63
2017-08-09T10:49:13.018Z,1019.67
2017-08-09T10:50:14.911Z,1019.72
2017-08-09T10:51:16.740Z,1019.73
2017-08-09T10:52:18.601Z,1019.71
2017-08-09T10:53:20.477Z,1019.68
2017-08-09T10:54:22.369Z,1019.64
2017-08-09T10:55:24.259Z,1019.62
2017-08-09T10:56:38.427Z,1019.63
2017-08-09T10:57:40.320Z,1019.64
2017-08-09T10:58:42.211Z,1019.64
2017-08-09T10:59:44.101Z,1019.60
2017-08-09T11:00:45.933Z,1019.62
2017-08-09T11:01:47.761Z,1019.63
2017-08-09T11:02:49.667Z,1019.62
2017-08-09T11:03:51.563Z,1019.59
2017-08-09T11:04:53.453Z,1019.59
2017-08-09T11:06:07.619Z,1019.61
2017-08-09T11:07:09.508Z,1019.62
2017-08-09T11:08:11.402Z,1019.65
2017-08-09T11:09:13.295Z,1019.67
2017-08-09T11:10:15.124Z,1019.70
2017-08-09T11:11:16.953Z,1019.62
2017-08-09T11:12:18.857Z,1019.61
2017-08-09T11:13:20.750Z,1019.61
2017-08-09T11:14:22.641Z,1019.60
2017-08-09T11:15:36.808Z,1019.64
2017-08-09T11:16:38.701Z,1019.62
2017-08-09T11:17:40.591Z,1019.55
2017-08-09T11:18:42.484Z,1019.56
2017-08-09T11:19:44.314Z,1019.59
2017-08-09T11:20:46.142Z,1019.58
2017-08-09T11:21:48.032Z,1019.59
2017-08-09T11:22:49.926Z,1019.63
2017-08-09T11:23:51.815Z,1019.70
2017-08-09T11:25:05.983Z,1019.72
2017-08-09T11:26:07.874Z,1019.74
2017-08-09T11:27:09.767Z,1019.73
2017-08-09T11:28:11.658Z,1019.72
2017-08-09T11:29:13.491Z,1019.78
2017-08-09T11:30:15.322Z,1019.78
2017-08-09T11:31:17.215Z,1019.71
2017-08-09T11:32:19.109Z,1019.73
2017-08-09T11:33:20.999Z,1019.75
2017-08-09T11:34:35.177Z,1019.75
2017-08-09T11:35:37.067Z,1019.76
2017-08-09T11:36:38.960Z,1019.75
2017-08-09T11:37:40.851Z,1019.71
2017-08-09T11:38:42.707Z,1019.70
2017-08-09T11:39:44.529Z,1019.75
2017-08-09T11:40:46.421Z,1019.65
2017-08-09T11:41:48.326Z,1019.65
2017-08-09T11:42:50.218Z,1019.65
2017-08-09T11:44:04.388Z,1019.63
2017-08-09T11:45:06.279Z,1019.58
2017-08-09T11:46:08.171Z,1019.51
2017-08-09T11:47:10.061Z,1019.43
2017-08-09T11:48:11.903Z,1019.40
2017-08-09T11:49:13.735Z,1019.35
2017-08-09T11:50:15.629Z,1019.32
2017-08-09T11:51:17.523Z,1019.34
2017-08-09T11:52:19.415Z,1019.32
2017-08-09T11:53:33.582Z,1019.28
2017-08-09T11:54:35.472Z,1019.30
2017-08-09T11:55:37.373Z,1019.27
2017-08-09T11:56:39.272Z,1019.30
2017-08-09T11:57:41.102Z,1019.27
2017-08-09T11:58:42.937Z,1019.27
2017-08-09T11:59:44.829Z,1019.28
2017-08-09T12:00:46.726Z,1019.28
2017-08-09T12:01:48.616Z,1019.26
2017-08-09T12:03:02.783Z,1019.26
2017-08-09T12:04:04.677Z,1019.25
2017-08-09T12:05:06.581Z,1019.26
2017-08-09T12:06:08.466Z,1019.27
2017-08-09T12:07:10.301Z,1019.29
2017-08-09T12:08:12.129Z,1019.28
2017-08-09T12:09:14.023Z,1019.25
2017-08-09T12:10:15.918Z,1019.23
2017-08-09T12:11:17.811Z,1019.29
2017-08-09T12:12:31.976Z,1019.28
2017-08-09T12:13:33.866Z,1019.32
2017-08-09T12:14:35.758Z,1019.39
2017-08-09T12:15:37.650Z,1019.35
2017-08-09T12:16:39.480Z,1019.31
2017-08-09T12:17:41.308Z,1019.31
2017-08-09T12:18:43.202Z,1019.28
2017-08-09T12:19:45.093Z,1019.29
2017-08-09T12:20:46.995Z,1019.27
2017-08-09T12:22:01.165Z,1019.25
2017-08-09T12:23:03.067Z,1019.21
2017-08-09T12:24:04.954Z,1019.21
2017-08-09T12:24:46.468Z,1019.20
2017-08-09T12:25:48.356Z,1019.25
2017-08-09T12:26:50.247Z,1019.24
2017-08-09T12:27:52.079Z,1019.22
2017-08-09T12:28:53.910Z,1019.19
2017-08-09T12:29:55.800Z,1019.13
2017-08-09T12:30:57.719Z,1019.11
2017-08-09T12:31:59.615Z,1019.11
2017-08-09T12:33:01.466Z,1019.12
2017-08-09T12:34:15.635Z,1019.08
2017-08-09T12:35:18.055Z,1019.07
2017-08-09T12:36:20.325Z,1019.09
2017-08-09T12:37:22.560Z,1019.09
2017-08-09T12:38:24.410Z,1019.12
2017-08-09T12:39:26.271Z,1019.12
2017-08-09T12:40:28.151Z,1019.06
2017-08-09T12:41:30.048Z,1019.06
2017-08-09T12:42:31.940Z,1019.04
2017-08-09T12:43:46.114Z,1019.00
2017-08-09T12:44:48.003Z,1019.02